sensor_id;sensor_type;location;lat;lon;timestamp;pressure;altitude;pressure_sealevel;temperature;humidity
3122;BME280;1571;52.524;14.104;2022-12-07T00:01:24;100816.84;;;2.81;100.00
3122;BME280;1571;52.524;14.104;2022-12-07T00:03:54;100814.38;;;2.75;100.00
3122;BME280;1571;52.524;14.104;2022-12-07T00:06:24;100806.72;;;2.68;100.00
3122;BME280;1571;52.524;14.104;2022-12-07T00:08:53;100803.25;;;2.68;100.00
3122;BME280;1571;52.524;14.104;2022-12-07T00:11:22;100808.56;;;2.65;100.00
3122;BME280;1571;52.524;14.104;2022-12-07T00:13:51;100803.34;;;2.63;100.00
3122;BME280;1571;52.524;14.104;2022-12-07T00:16:21;100800.22;;;2.50;100.00
3122;BME280;1571;52.524;14.104;2022-12-07T00:18:50;100799.38;;;2.50;100.00
3122;BME280;1571;52.524;14.104;2022-12-07T00:21:20;100798.16;;;2.62;100.00
3122;BME280;1571;52.524;14.104;2022-12-07T00:23:51;100805.13;;;2.63;100.00
3122;BME280;1571;52.524;14.104;2022-12-07T00:26:22;100793.13;;;2.54;100.00
3122;BME280;1571;52.524;14.104;2022-12-07T00:28:52;100800.66;;;2.66;100.00
3122;BME280;1571;52.524;14.104;2022-12-07T00:31:23;100789.47;;;2.61;100.00
3122;BME280;1571;52.524;14.104;2022-12-07T00:33:51;100787.50;;;2.68;100.00
3122;BME280;1571;52.524;14.104;2022-12-07T00:36:21;100783.28;;;2.62;100.00
3122;BME280;1571;52.524;14.104;2022-12-07T00:38:53;100783.84;;;2.74;100.00
3122;BME280;1571;52.524;14.104;2022-12-07T00:41:25;100788.25;;;2.71;100.00
3122;BME280;1571;52.524;14.104;2022-12-07T00:43:53;100790.00;;;2.73;100.00
3122;BME280;1571;52.524;14.104;2022-12-07T00:46:22;100787.41;;;2.71;100.00
3122;BME280;1571;52.524;14.104;2022-12-07T00:48:51;100788.53;;;2.62;100.00
3122;BME280;1571;52.524;14.104;2022-12-07T00:51:22;100791.97;;;2.64;100.00
3122;BME280;1571;52.524;14.104;2022-12-07T00:53:51;100785.91;;;2.62;100.00
3122;BME280;1571;52.524;14.104;2022-12-07T00:56:23;100775.53;;;2.59;100.00
3122;BME280;1571;52.524;14.104;2022-12-07T00:58:53;100779.19;;;2.52;100.00
3122;BME280;1571;52.524;14.104;2022-12-07T01:01:21;100773.28;;;2.45;100.00
3122;BME280;1571;52.524;14.104;2022-12-07T01:03:50;100771.44;;;2.49;100.00
3122;BME280;1571;52.524;14.104;2022-12-07T01:06:19;100769.91;;;2.42;100.00
3122;BME280;1571;52.524;14.104;2022-12-07T01:08:49;100766.44;;;2.41;100.00
3122;BME280;1571;52.524;14.104;2022-12-07T01:11:20;100772.91;;;2.28;100.00
3122;BME280;1571;52.524;14.104;2022-12-07T01:13:51;100772.94;;;2.26;100.00
3122;BME280;1571;52.524;14.104;2022-12-07T01:16:21;100772.81;;;2.31;100.00
3122;BME280;1571;52.524;14.104;2022-12-07T01:18:52;100758.22;;;2.22;100.00
3122;BME280;1571;52.524;14.104;2022-12-07T01:21:23;100762.97;;;2.08;100.00
3122;BME280;1571;52.524;14.104;2022-12-07T01:23:52;100761.19;;;2.10;100.00
3122;BME280;1571;52.524;14.104;2022-12-07T01:26:22;100759.78;;;1.97;100.00
3122;BME280;1571;52.524;14.104;2022-12-07T01:28:52;100755.50;;;1.94;100.00
3122;BME280;1571;52.524;14.104;2022-12-07T01:31:23;100756.34;;;1.95;100.00
3122;BME280;1571;52.524;14.104;2022-12-07T01:33:53;100749.22;;;2.00;100.00
3122;BME280;1571;52.524;14.104;2022-12-07T01:36:23;100749.19;;;2.01;100.00
3122;BME280;1571;52.524;14.104;2022-12-07T01:38:54;100751.94;;;1.97;100.00
3122;BME280;1571;52.524;14.104;2022-12-07T01:41:25;100745.97;;;1.92;100.00
3122;BME280;1571;52.524;14.104;2022-12-07T01:44:11;100747.22;;;1.77;100.00
3122;BME280;1571;52.524;14.104;2022-12-07T01:46:41;100742.72;;;1.82;100.00
3122;BME280;1571;52.524;14.104;2022-12-07T01:49:14;100738.41;;;1.79;100.00
3122;BME280;1571;52.524;14.104;2022-12-07T01:51:44;100728.63;;;1.87;100.00
3122;BME280;1571;52.524;14.104;2022-12-07T01:54:15;100739.28;;;1.80;100.00
3122;BME280;1571;52.524;14.104;2022-12-07T01:56:48;100733.44;;;1.70;100.00
3122;BME280;1571;52.524;14.104;2022-12-07T01:59:21;100740.06;;;1.83;100.00
3122;BME280;1571;52.524;14.104;2022-12-07T02:01:51;100724.66;;;1.71;100.00
3122;BME280;1571;52.524;14.104;2022-12-07T02:04:21;100730.94;;;1.98;100.00
3122;BME280;1571;52.524;14.104;2022-12-07T02:06:50;100728.75;;;1.83;100.00
3122;BME280;1571;52.524;14.104;2022-12-07T02:09:18;100729.84;;;1.74;100.00
3122;BME280;1571;52.524;14.104;2022-12-07T02:11:46;100718.84;;;1.60;100.00
3122;BME280;1571;52.524;14.104;2022-12-07T02:14:15;100720.50;;;1.64;100.00
3122;BME280;1571;52.524;14.104;2022-12-07T02:16:54;100717.88;;;1.64;100.00
3122;BME280;1571;52.524;14.104;2022-12-07T02:19:42;100714.31;;;1.66;100.00
3122;BME280;1571;52.524;14.104;2022-12-07T02:22:29;100706.34;;;1.71;100.00
3122;BME280;1571;52.524;14.104;2022-12-07T02:25:10;100702.13;;;1.67;100.00
3122;BME280;1571;52.524;14.104;2022-12-07T02:27:45;100700.47;;;1.63;100.00
3122;BME280;1571;52.524;14.104;2022-12-07T02:30:17;100686.59;;;1.59;100.00
3122;BME280;1571;52.524;14.104;2022-12-07T02:32:53;100688.63;;;1.48;100.00
3122;BME280;1571;52.524;14.104;2022-12-07T02:35:28;100689.81;;;1.36;100.00
3122;BME280;1571;52.524;14.104;2022-12-07T02:38:03;100683.47;;;1.47;100.00
3122;BME280;1571;52.524;14.104;2022-12-07T02:40:35;100677.97;;;1.56;100.00
3122;BME280;1571;52.524;14.104;2022-12-07T02:43:09;100682.91;;;1.66;100.00
3122;BME280;1571;52.524;14.104;2022-12-07T02:45:42;100674.59;;;1.51;100.00
3122;BME280;1571;52.524;14.104;2022-12-07T02:48:15;100679.56;;;1.61;100.00
3122;BME280;1571;52.524;14.104;2022-12-07T02:50:45;100676.13;;;1.59;100.00
3122;BME280;1571;52.524;14.104;2022-12-07T02:53:30;100665.63;;;1.61;100.00
3122;BME280;1571;52.524;14.104;2022-12-07T02:55:59;100663.56;;;1.72;100.00
3122;BME280;1571;52.524;14.104;2022-12-07T02:58:38;100655.38;;;1.84;100.00
3122;BME280;1571;52.524;14.104;2022-12-07T03:01:21;100656.75;;;1.66;100.00
3122;BME280;1571;52.524;14.104;2022-12-07T03:04:00;100652.94;;;1.78;100.00
3122;BME280;1571;52.524;14.104;2022-12-07T03:06:35;100645.56;;;1.60;100.00
3122;BME280;1571;52.524;14.104;2022-12-07T03:09:12;100640.72;;;1.46;100.00
3122;BME280;1571;52.524;14.104;2022-12-07T03:11:46;100637.66;;;1.63;100.00
3122;BME280;1571;52.524;14.104;2022-12-07T03:14:18;100637.97;;;1.51;100.00
3122;BME280;1571;52.524;14.104;2022-12-07T03:16:55;100627.88;;;1.70;100.00
3122;BME280;1571;52.524;14.104;2022-12-07T03:19:26;100616.72;;;1.63;100.00
3122;BME280;1571;52.524;14.104;2022-12-07T03:21:57;100609.28;;;1.80;100.00
3122;BME280;1571;52.524;14.104;2022-12-07T03:24:33;100608.50;;;1.77;100.00
3122;BME280;1571;52.524;14.104;2022-12-07T03:27:05;100603.22;;;1.78;100.00
3122;BME280;1571;52.524;14.104;2022-12-07T03:29:38;100600.97;;;1.33;100.00
3122;BME280;1571;52.524;14.104;2022-12-07T03:32:14;100600.88;;;1.69;100.00
3122;BME280;1571;52.524;14.104;2022-12-07T03:34:47;100593.63;;;1.46;100.00
3122;BME280;1571;52.524;14.104;2022-12-07T03:37:23;100598.28;;;1.35;100.00
3122;BME280;1571;52.524;14.104;2022-12-07T03:40:00;100592.22;;;1.33;100.00
3122;BME280;1571;52.524;14.104;2022-12-07T03:42:30;100591.38;;;1.32;100.00
3122;BME280;1571;52.524;14.104;2022-12-07T03:45:00;100588.72;;;1.35;100.00
3122;BME280;1571;52.524;14.104;2022-12-07T03:47:33;100582.50;;;1.05;100.00
3122;BME280;1571;52.524;14.104;2022-12-07T03:50:08;100566.97;;;1.33;100.00
3122;BME280;1571;52.524;14.104;2022-12-07T03:52:40;100564.16;;;1.08;100.00
3122;BME280;1571;52.524;14.104;2022-12-07T03:55:15;100558.13;;;1.04;100.00
3122;BME280;1571;52.524;14.104;2022-12-07T03:57:47;100559.94;;;1.01;100.00
3122;BME280;1571;52.524;14.104;2022-12-07T04:00:18;100550.59;;;0.92;100.00
3122;BME280;1571;52.524;14.104;2022-12-07T04:02:51;100543.75;;;0.88;100.00
3122;BME280;1571;52.524;14.104;2022-12-07T04:05:19;100537.25;;;0.69;100.00
3122;BME280;1571;52.524;14.104;2022-12-07T04:07:47;100532.47;;;0.86;100.00
3122;BME280;1571;52.524;14.104;2022-12-07T04:10:16;100533.44;;;0.82;100.00
3122;BME280;1571;52.524;14.104;2022-12-07T04:12:44;100536.41;;;1.01;100.00
3122;BME280;1571;52.524;14.104;2022-12-07T04:15:13;100536.78;;;0.87;100.00
3122;BME280;1571;52.524;14.104;2022-12-07T04:17:41;100521.88;;;0.91;100.00
3122;BME280;1571;52.524;14.104;2022-12-07T04:20:11;100523.56;;;0.93;100.00
3122;BME280;1571;52.524;14.104;2022-12-07T04:22:40;100521.34;;;0.78;100.00
3122;BME280;1571;52.524;14.104;2022-12-07T04:25:08;100521.13;;;0.86;100.00
3122;BME280;1571;52.524;14.104;2022-12-07T04:27:36;100508.06;;;0.86;100.00
3122;BME280;1571;52.524;14.104;2022-12-07T04:30:05;100519.31;;;0.89;100.00
3122;BME280;1571;52.524;14.104;2022-12-07T04:32:34;100510.72;;;0.84;100.00
3122;BME280;1571;52.524;14.104;2022-12-07T04:35:03;100511.38;;;0.92;100.00
3122;BME280;1571;52.524;14.104;2022-12-07T04:37:32;100507.19;;;0.87;100.00
3122;BME280;1571;52.524;14.104;2022-12-07T04:40:00;100496.84;;;0.82;100.00
3122;BME280;1571;52.524;14.104;2022-12-07T04:42:29;100501.94;;;0.87;100.00
3122;BME280;1571;52.524;14.104;2022-12-07T04:44:57;100497.09;;;0.73;100.00
3122;BME280;1571;52.524;14.104;2022-12-07T04:47:25;100504.53;;;0.88;100.00
3122;BME280;1571;52.524;14.104;2022-12-07T04:49:53;100500.91;;;0.92;100.00
3122;BME280;1571;52.524;14.104;2022-12-07T04:52:22;100494.25;;;0.80;100.00
3122;BME280;1571;52.524;14.104;2022-12-07T04:54:51;100492.28;;;0.90;100.00
3122;BME280;1571;52.524;14.104;2022-12-07T04:57:19;100499.88;;;0.99;100.00
3122;BME280;1571;52.524;14.104;2022-12-07T04:59:47;100496.59;;;0.91;100.00
3122;BME280;1571;52.524;14.104;2022-12-07T05:02:15;100491.38;;;0.91;100.00
3122;BME280;1571;52.524;14.104;2022-12-07T05:04:44;100478.59;;;0.80;100.00
3122;BME280;1571;52.524;14.104;2022-12-07T05:07:12;100484.66;;;0.81;100.00
3122;BME280;1571;52.524;14.104;2022-12-07T05:09:40;100474.53;;;0.69;100.00
3122;BME280;1571;52.524;14.104;2022-12-07T05:12:09;100465.06;;;0.65;100.00
3122;BME280;1571;52.524;14.104;2022-12-07T05:14:38;100468.41;;;0.70;100.00
3122;BME280;1571;52.524;14.104;2022-12-07T05:17:06;100464.09;;;0.69;100.00
3122;BME280;1571;52.524;14.104;2022-12-07T05:19:34;100458.28;;;0.57;100.00
3122;BME280;1571;52.524;14.104;2022-12-07T05:22:02;100461.03;;;0.53;100.00
3122;BME280;1571;52.524;14.104;2022-12-07T05:24:30;100460.91;;;0.57;100.00
3122;BME280;1571;52.524;14.104;2022-12-07T05:26:59;100465.97;;;0.64;100.00
3122;BME280;1571;52.524;14.104;2022-12-07T05:29:28;100465.97;;;0.64;100.00
3122;BME280;1571;52.524;14.104;2022-12-07T05:31:56;100468.47;;;0.68;100.00
3122;BME280;1571;52.524;14.104;2022-12-07T05:34:25;100468.50;;;0.67;100.00
3122;BME280;1571;52.524;14.104;2022-12-07T05:36:53;100469.22;;;0.72;100.00
3122;BME280;1571;52.524;14.104;2022-12-07T05:39:22;100465.72;;;0.73;100.00
3122;BME280;1571;52.524;14.104;2022-12-07T05:41:50;100470.72;;;0.82;100.00
3122;BME280;1571;52.524;14.104;2022-12-07T05:44:37;100472.50;;;0.80;100.00
3122;BME280;1571;52.524;14.104;2022-12-07T05:47:06;100467.13;;;0.86;100.00
3122;BME280;1571;52.524;14.104;2022-12-07T05:49:34;100467.44;;;0.74;100.00
3122;BME280;1571;52.524;14.104;2022-12-07T05:52:03;100461.13;;;0.82;100.00
3122;BME280;1571;52.524;14.104;2022-12-07T05:54:32;100457.31;;;0.94;100.00
3122;BME280;1571;52.524;14.104;2022-12-07T05:57:00;100458.47;;;0.84;100.00
3122;BME280;1571;52.524;14.104;2022-12-07T05:59:28;100444.72;;;0.76;100.00
3122;BME280;1571;52.524;14.104;2022-12-07T06:01:59;100453.53;;;0.72;100.00
3122;BME280;1571;52.524;14.104;2022-12-07T06:04:29;100448.16;;;0.78;100.00
3122;BME280;1571;52.524;14.104;2022-12-07T06:06:57;100453.31;;;0.81;100.00
3122;BME280;1571;52.524;14.104;2022-12-07T06:09:27;100452.25;;;0.88;100.00
3122;BME280;1571;52.524;14.104;2022-12-07T06:11:57;100449.91;;;0.79;100.00
3122;BME280;1571;52.524;14.104;2022-12-07T06:14:43;100447.19;;;0.82;100.00
3122;BME280;1571;52.524;14.104;2022-12-07T06:17:13;100454.13;;;0.83;100.00
3122;BME280;1571;52.524;14.104;2022-12-07T06:19:42;100450.34;;;0.60;100.00
3122;BME280;1571;52.524;14.104;2022-12-07T06:22:10;100447.50;;;0.70;100.00
3122;BME280;1571;52.524;14.104;2022-12-07T06:24:39;100448.25;;;0.75;100.00
3122;BME280;1571;52.524;14.104;2022-12-07T06:27:08;100441.41;;;0.71;100.00
3122;BME280;1571;52.524;14.104;2022-12-07T06:29:36;100453.88;;;0.92;100.00
3122;BME280;1571;52.524;14.104;2022-12-07T06:32:05;100438.38;;;0.86;100.00
3122;BME280;1571;52.524;14.104;2022-12-07T06:34:35;100448.75;;;0.89;100.00
3122;BME280;1571;52.524;14.104;2022-12-07T06:37:03;100430.28;;;0.95;100.00
3122;BME280;1571;52.524;14.104;2022-12-07T06:39:31;100438.78;;;0.71;100.00
3122;BME280;1571;52.524;14.104;2022-12-07T06:41:59;100425.31;;;0.86;100.00
3122;BME280;1571;52.524;14.104;2022-12-07T06:44:27;100429.91;;;1.08;100.00
3122;BME280;1571;52.524;14.104;2022-12-07T06:46:56;100429.66;;;1.17;100.00
3122;BME280;1571;52.524;14.104;2022-12-07T06:49:45;100433.28;;;1.13;100.00
3122;BME280;1571;52.524;14.104;2022-12-07T06:52:14;100427.19;;;1.12;100.00
3122;BME280;1571;52.524;14.104;2022-12-07T06:54:42;100422.81;;;1.13;100.00
3122;BME280;1571;52.524;14.104;2022-12-07T06:57:10;100422.63;;;1.19;100.00
3122;BME280;1571;52.524;14.104;2022-12-07T06:59:38;100425.75;;;1.02;100.00
3122;BME280;1571;52.524;14.104;2022-12-07T07:02:07;100419.41;;;1.11;100.00
3122;BME280;1571;52.524;14.104;2022-12-07T07:04:36;100425.31;;;1.17;100.00
3122;BME280;1571;52.524;14.104;2022-12-07T07:07:05;100428.47;;;1.29;100.00
3122;BME280;1571;52.524;14.104;2022-12-07T07:09:33;100419.03;;;1.23;100.00
3122;BME280;1571;52.524;14.104;2022-12-07T07:12:02;100421.00;;;1.15;100.00
3122;BME280;1571;52.524;14.104;2022-12-07T07:14:30;100427.59;;;1.28;100.00
3122;BME280;1571;52.524;14.104;2022-12-07T07:16:58;100420.38;;;1.36;100.00
3122;BME280;1571;52.524;14.104;2022-12-07T07:19:27;100430.16;;;1.30;100.00
3122;BME280;1571;52.524;14.104;2022-12-07T07:21:55;100422.81;;;1.13;100.00
3122;BME280;1571;52.524;14.104;2022-12-07T07:24:24;100424.00;;;1.01;100.00
3122;BME280;1571;52.524;14.104;2022-12-07T07:26:53;100433.44;;;1.07;100.00
3122;BME280;1571;52.524;14.104;2022-12-07T07:29:21;100429.66;;;1.17;100.00
3122;BME280;1571;52.524;14.104;2022-12-07T07:31:49;100430.44;;;1.20;100.00
3122;BME280;1571;52.524;14.104;2022-12-07T07:34:17;100431.94;;;1.29;100.00
3122;BME280;1571;52.524;14.104;2022-12-07T07:36:46;100434.69;;;1.24;100.00
3122;BME280;1571;52.524;14.104;2022-12-07T07:39:14;100439.09;;;1.22;100.00
3122;BME280;1571;52.524;14.104;2022-12-07T07:41:43;100439.66;;;1.34;100.00
3122;BME280;1571;52.524;14.104;2022-12-07T07:44:13;100431.75;;;1.35;100.00
3122;BME280;1571;52.524;14.104;2022-12-07T07:46:41;100428.00;;;1.44;100.00
3122;BME280;1571;52.524;14.104;2022-12-07T07:49:10;100428.94;;;1.41;100.00
3122;BME280;1571;52.524;14.104;2022-12-07T07:51:38;100429.56;;;1.51;100.00
3122;BME280;1571;52.524;14.104;2022-12-07T07:54:06;100419.84;;;1.55;100.00
3122;BME280;1571;52.524;14.104;2022-12-07T07:56:35;100430.91;;;1.64;100.00
3122;BME280;1571;52.524;14.104;2022-12-07T07:59:04;100426.22;;;1.74;100.00
3122;BME280;1571;52.524;14.104;2022-12-07T08:01:33;100421.97;;;1.70;100.00
3122;BME280;1571;52.524;14.104;2022-12-07T08:04:01;100424.41;;;1.76;100.00
3122;BME280;1571;52.524;14.104;2022-12-07T08:06:29;100419.94;;;1.80;100.00
3122;BME280;1571;52.524;14.104;2022-12-07T08:08:58;100415.56;;;1.80;100.00
3122;BME280;1571;52.524;14.104;2022-12-07T08:11:27;100420.06;;;1.75;100.00
3122;BME280;1571;52.524;14.104;2022-12-07T08:13:55;100432.78;;;1.87;100.00
3122;BME280;1571;52.524;14.104;2022-12-07T08:16:25;100432.97;;;1.81;100.00
3122;BME280;1571;52.524;14.104;2022-12-07T08:18:54;100429.31;;;1.87;100.00
3122;BME280;1571;52.524;14.104;2022-12-07T08:21:22;100431.78;;;1.92;100.00
3122;BME280;1571;52.524;14.104;2022-12-07T08:23:50;100425.34;;;2.02;100.00
3122;BME280;1571;52.524;14.104;2022-12-07T08:26:19;100435.94;;;1.99;100.00
3122;BME280;1571;52.524;14.104;2022-12-07T08:28:47;100423.69;;;1.99;100.00
3122;BME280;1571;52.524;14.104;2022-12-07T08:31:17;100426.19;;;2.02;100.00
3122;BME280;1571;52.524;14.104;2022-12-07T08:33:48;100435.00;;;2.00;100.00
3122;BME280;1571;52.524;14.104;2022-12-07T08:36:17;100431.25;;;2.08;100.00
3122;BME280;1571;52.524;14.104;2022-12-07T08:38:45;100431.78;;;1.92;100.00
3122;BME280;1571;52.524;14.104;2022-12-07T08:41:33;100431.66;;;1.96;100.00
3122;BME280;1571;52.524;14.104;2022-12-07T08:44:02;100426.84;;;2.09;100.00
3122;BME280;1571;52.524;14.104;2022-12-07T08:46:33;100439.78;;;2.14;100.00
3122;BME280;1571;52.524;14.104;2022-12-07T08:49:10;100454.25;;;1.99;100.00
3122;BME280;1571;52.524;14.104;2022-12-07T08:51:40;100448.56;;;1.84;100.00
3122;BME280;1571;52.524;14.104;2022-12-07T08:54:11;100436.88;;;1.68;100.00
3122;BME280;1571;52.524;14.104;2022-12-07T08:56:40;100442.97;;;1.39;100.00
3122;BME280;1571;52.524;14.104;2022-12-07T08:59:09;100435.97;;;1.39;100.00
3122;BME280;1571;52.524;14.104;2022-12-07T09:01:38;100447.78;;;1.23;100.00
3122;BME280;1571;52.524;14.104;2022-12-07T09:04:08;100434.13;;;1.13;100.00
3122;BME280;1571;52.524;14.104;2022-12-07T09:06:36;100444.66;;;1.10;100.00
3122;BME280;1571;52.524;14.104;2022-12-07T09:09:05;100438.84;;;1.00;100.00
3122;BME280;1571;52.524;14.104;2022-12-07T09:11:34;100435.91;;;1.13;100.00
3122;BME280;1571;52.524;14.104;2022-12-07T09:14:02;100439.94;;;1.23;100.00
3122;BME280;1571;52.524;14.104;2022-12-07T09:16:31;100442.94;;;1.40;100.00
3122;BME280;1571;52.524;14.104;2022-12-07T09:18:59;100441.69;;;1.54;100.00
3122;BME280;1571;52.524;14.104;2022-12-07T09:21:28;100448.47;;;1.59;100.00
3122;BME280;1571;52.524;14.104;2022-12-07T09:23:57;100450.09;;;1.63;100.00
3122;BME280;1571;52.524;14.104;2022-12-07T09:26:25;100443.63;;;1.75;100.00
3122;BME280;1571;52.524;14.104;2022-12-07T09:28:53;100446.97;;;1.80;100.00
3122;BME280;1571;52.524;14.104;2022-12-07T09:31:21;100457.06;;;1.93;100.00
3122;BME280;1571;52.524;14.104;2022-12-07T09:33:55;100453.16;;;2.06;100.00
3122;BME280;1571;52.524;14.104;2022-12-07T09:36:23;100446.09;;;2.08;100.00
3122;BME280;1571;52.524;14.104;2022-12-07T09:38:53;100441.25;;;2.22;100.00
3122;BME280;1571;52.524;14.104;2022-12-07T09:41:23;100448.09;;;2.28;100.00
3122;BME280;1571;52.524;14.104;2022-12-07T09:43:52;100447.31;;;2.24;100.00
3122;BME280;1571;52.524;14.104;2022-12-07T09:46:20;100446.97;;;2.35;100.00
3122;BME280;1571;52.524;14.104;2022-12-07T09:48:50;100444.72;;;2.49;100.00
3122;BME280;1571;52.524;14.104;2022-12-07T09:51:20;100450.59;;;2.58;100.00
3122;BME280;1571;52.524;14.104;2022-12-07T09:53:54;100438.53;;;2.52;100.00
3122;BME280;1571;52.524;14.104;2022-12-07T09:56:23;100438.91;;;2.41;100.00
3122;BME280;1571;52.524;14.104;2022-12-07T09:58:59;100433.00;;;2.61;100.00
3122;BME280;1571;52.524;14.104;2022-12-07T10:01:29;100437.47;;;2.58;100.00
3122;BME280;1571;52.524;14.104;2022-12-07T10:04:09;100433.94;;;2.59;100.00
3122;BME280;1571;52.524;14.104;2022-12-07T10:06:41;100427.16;;;2.53;100.00
3122;BME280;1571;52.524;14.104;2022-12-07T10:09:11;100426.78;;;2.39;100.00
3122;BME280;1571;52.524;14.104;2022-12-07T10:11:59;100426.69;;;2.40;100.00
3122;BME280;1571;52.524;14.104;2022-12-07T10:14:30;100423.28;;;2.38;100.00
3122;BME280;1571;52.524;14.104;2022-12-07T10:17:38;100427.78;;;2.35;100.00
3122;BME280;1571;52.524;14.104;2022-12-07T10:20:13;100428.75;;;2.32;100.00
3122;BME280;1571;52.524;14.104;2022-12-07T10:23:00;100423.69;;;2.26;100.00
3122;BME280;1571;52.524;14.104;2022-12-07T10:25:33;100424.59;;;2.25;100.00
3122;BME280;1571;52.524;14.104;2022-12-07T10:28:11;100419.13;;;2.33;100.00
3122;BME280;1571;52.524;14.104;2022-12-07T10:30:53;100425.31;;;2.30;100.00
3122;BME280;1571;52.524;14.104;2022-12-07T10:33:29;100417.00;;;2.44;100.00
3122;BME280;1571;52.524;14.104;2022-12-07T10:35:58;100419.59;;;2.44;100.00
3122;BME280;1571;52.524;14.104;2022-12-07T10:38:27;100417.06;;;2.41;100.00
3122;BME280;1571;52.524;14.104;2022-12-07T10:41:05;100412.78;;;2.38;100.00
3122;BME280;1571;52.524;14.104;2022-12-07T10:43:34;100408.94;;;2.50;100.00
3122;BME280;1571;52.524;14.104;2022-12-07T10:49:30;100396.09;;;2.41;100.00
3122;BME280;1571;52.524;14.104;2022-12-07T10:52:09;100397.72;;;2.45;100.00
3122;BME280;1571;52.524;14.104;2022-12-07T10:54:47;100392.72;;;2.39;100.00
3122;BME280;1571;52.524;14.104;2022-12-07T10:57:32;100390.34;;;2.31;100.00
3122;BME280;1571;52.524;14.104;2022-12-07T11:00:15;100376.63;;;2.23;100.00
3122;BME280;1571;52.524;14.104;2022-12-07T11:02:55;100377.50;;;2.23;100.00
3122;BME280;1571;52.524;14.104;2022-12-07T11:05:34;100381.63;;;2.31;100.00
3122;BME280;1571;52.524;14.104;2022-12-07T11:08:13;100368.50;;;2.32;100.00
3122;BME280;1571;52.524;14.104;2022-12-07T11:10:49;100369.66;;;2.48;100.00
3122;BME280;1571;52.524;14.104;2022-12-07T11:13:26;100363.00;;;2.63;100.00
3122;BME280;1571;52.524;14.104;2022-12-07T11:16:18;100353.78;;;2.77;100.00
3122;BME280;1571;52.524;14.104;2022-12-07T11:18:56;100362.72;;;2.96;100.00
3122;BME280;1571;52.524;14.104;2022-12-07T11:21:31;100345.06;;;3.23;100.00
3122;BME280;1571;52.524;14.104;2022-12-07T11:24:05;100346.19;;;3.18;100.00
3122;BME280;1571;52.524;14.104;2022-12-07T11:26:50;100339.56;;;3.07;100.00
3122;BME280;1571;52.524;14.104;2022-12-07T11:29:49;100334.19;;;3.10;100.00
3122;BME280;1571;52.524;14.104;2022-12-07T11:32:26;100349.25;;;3.05;100.00
3122;BME280;1571;52.524;14.104;2022-12-07T11:35:05;100350.22;;;2.79;100.00
3122;BME280;1571;52.524;14.104;2022-12-07T11:37:37;100341.16;;;2.64;100.00
3122;BME280;1571;52.524;14.104;2022-12-07T11:40:17;100347.41;;;2.60;100.00
3122;BME280;1571;52.524;14.104;2022-12-07T11:42:52;100343.47;;;2.72;100.00
3122;BME280;1571;52.524;14.104;2022-12-07T11:45:27;100344.53;;;2.68;100.00
3122;BME280;1571;52.524;14.104;2022-12-07T11:47:59;100350.34;;;2.51;100.00
3122;BME280;1571;52.524;14.104;2022-12-07T11:50:33;100355.06;;;2.66;100.00
3122;BME280;1571;52.524;14.104;2022-12-07T11:53:10;100356.81;;;2.41;100.00
3122;BME280;1571;52.524;14.104;2022-12-07T11:55:48;100357.41;;;2.49;100.00
3122;BME280;1571;52.524;14.104;2022-12-07T11:58:35;100361.31;;;2.62;100.00
3122;BME280;1571;52.524;14.104;2022-12-07T12:01:13;100347.44;;;2.59;100.00
3122;BME280;1571;52.524;14.104;2022-12-07T12:03:45;100358.34;;;2.48;100.00
3122;BME280;1571;52.524;14.104;2022-12-07T12:06:20;100357.00;;;2.61;100.00
3122;BME280;1571;52.524;14.104;2022-12-07T12:08:53;100360.19;;;2.69;100.00
3122;BME280;1571;52.524;14.104;2022-12-07T12:12:00;100358.34;;;2.48;100.00
3122;BME280;1571;52.524;14.104;2022-12-07T12:15:03;100357.88;;;2.60;100.00
3122;BME280;1571;52.524;14.104;2022-12-07T12:18:21;100353.81;;;2.52;100.00
3122;BME280;1571;52.524;14.104;2022-12-07T12:20:56;100349.59;;;2.47;100.00
3122;BME280;1571;52.524;14.104;2022-12-07T12:23:35;100339.88;;;2.51;100.00
3122;BME280;1571;52.524;14.104;2022-12-07T12:26:07;100340.28;;;2.64;100.00
3122;BME280;1571;52.524;14.104;2022-12-07T12:28:48;100343.09;;;2.59;100.00
3122;BME280;1571;52.524;14.104;2022-12-07T12:31:32;100339.00;;;2.76;100.00
3122;BME280;1571;52.524;14.104;2022-12-07T12:34:29;100340.81;;;2.74;100.00
3122;BME280;1571;52.524;14.104;2022-12-07T12:36:54;100333.41;;;2.85;100.00
3122;BME280;1571;52.524;14.104;2022-12-07T12:39:22;100336.03;;;2.85;100.00
3122;BME280;1571;52.524;14.104;2022-12-07T12:41:59;100331.94;;;2.78;100.00
3122;BME280;1571;52.524;14.104;2022-12-07T12:50:25;100334.59;;;2.76;100.00
3122;BME280;1571;52.524;14.104;2022-12-07T12:53:02;100330.44;;;2.70;100.00
3122;BME280;1571;52.524;14.104;2022-12-07T12:58:40;100328.03;;;2.88;100.00
3122;BME280;1571;52.524;14.104;2022-12-07T13:01:43;100331.47;;;2.90;100.00
3122;BME280;1571;52.524;14.104;2022-12-07T13:04:48;100329.84;;;2.86;100.00
3122;BME280;1571;52.524;14.104;2022-12-07T13:10:33;100344.66;;;2.63;100.00
3122;BME280;1571;52.524;14.104;2022-12-07T13:13:04;100340.59;;;2.80;100.00
3122;BME280;1571;52.524;14.104;2022-12-07T13:15:35;100338.03;;;2.78;100.00
3122;BME280;1571;52.524;14.104;2022-12-07T13:20:50;100332.22;;;2.94;100.00
3122;BME280;1571;52.524;14.104;2022-12-07T13:23:22;100336.59;;;2.93;100.00
3122;BME280;1571;52.524;14.104;2022-12-07T13:25:55;100333.19;;;2.91;100.00
3122;BME280;1571;52.524;14.104;2022-12-07T13:28:33;100330.25;;;2.99;100.00
3122;BME280;1571;52.524;14.104;2022-12-07T13:31:11;100338.47;;;2.89;100.00
3122;BME280;1571;52.524;14.104;2022-12-07T13:33:43;100341.28;;;2.85;100.00
3122;BME280;1571;52.524;14.104;2022-12-07T13:36:18;100342.19;;;2.84;100.00
3122;BME280;1571;52.524;14.104;2022-12-07T13:38:51;100338.88;;;2.79;100.00
3122;BME280;1571;52.524;14.104;2022-12-07T13:41:22;100335.41;;;2.78;100.00
3122;BME280;1571;52.524;14.104;2022-12-07T13:43:53;100334.16;;;2.88;100.00
3122;BME280;1571;52.524;14.104;2022-12-07T13:46:26;100332.59;;;2.83;100.00